createdAt,value
2018-09-25T00:00:18.914Z,102087.26
2018-09-25T00:00:58.807Z,102092.42
2018-09-25T00:01:38.750Z,102093.72
2018-09-25T00:02:18.652Z,102093.70
2018-09-25T00:02:58.775Z,102094.56
2018-09-25T00:03:38.817Z,102092.00
2018-09-25T00:04:18.704Z,102100.17
2018-09-25T00:04:58.802Z,102095.01
2018-09-25T00:05:38.826Z,102097.59
2018-09-25T00:06:18.800Z,102096.72
2018-09-25T00:06:58.676Z,102100.16
2018-09-25T00:07:38.574Z,102105.75
2018-09-25T00:08:18.348Z,102109.20
2018-09-25T00:08:58.481Z,102104.03
2018-09-25T00:09:38.513Z,102103.16
2018-09-25T00:10:18.585Z,102099.27
2018-09-25T00:10:58.619Z,102104.42
2018-09-25T00:11:38.454Z,102106.60
2018-09-25T00:12:18.229Z,102109.58
2018-09-25T00:12:58.822Z,102106.16
2018-09-25T00:13:38.679Z,102109.14
2018-09-25T00:14:18.632Z,102107.45
2018-09-25T00:14:58.484Z,102099.25
2018-09-25T00:15:38.274Z,102104.84
2018-09-25T00:16:18.166Z,102098.81
2018-09-25T00:16:58.119Z,102099.26
2018-09-25T00:17:38.152Z,102101.83
2018-09-25T00:18:18.008Z,102103.98
2018-09-25T00:18:58.642Z,102101.41
2018-09-25T00:19:38.491Z,102105.69
2018-09-25T00:20:18.412Z,102108.27
2018-09-25T00:20:58.504Z,102108.25
2018-09-25T00:21:38.318Z,102101.82
2018-09-25T00:22:18.293Z,102104.80
2018-09-25T00:22:58.416Z,102102.22
2018-09-25T00:23:38.279Z,102104.36
2018-09-25T00:24:18.517Z,102103.52
2018-09-25T00:24:58.562Z,102103.01
2018-09-25T00:25:38.602Z,102105.64
2018-09-25T00:26:18.444Z,102103.88
2018-09-25T00:26:58.580Z,102104.72
2018-09-25T00:27:38.632Z,102103.50
2018-09-25T00:28:18.626Z,102100.91
2018-09-25T00:28:58.747Z,102105.66
2018-09-25T00:29:39.182Z,102098.29
2018-09-25T00:30:19.190Z,102096.20
2018-09-25T00:30:59.436Z,102103.50
2018-09-25T00:31:39.596Z,102099.64
2018-09-25T00:32:19.635Z,102103.08
2018-09-25T00:32:59.682Z,102100.94
2018-09-25T00:33:39.730Z,102099.63
2018-09-25T00:34:19.539Z,102105.66
2018-09-25T00:34:59.718Z,102103.48
2018-09-25T00:35:39.589Z,102106.92
2018-09-25T00:36:19.473Z,102104.30
2018-09-25T00:36:59.455Z,102109.47
2018-09-25T00:37:39.435Z,102107.73
2018-09-25T00:38:19.244Z,102111.61
2018-09-25T00:38:59.324Z,102106.84
2018-09-25T00:39:39.196Z,102118.05
2018-09-25T00:40:19.049Z,102110.29
2018-09-25T00:41:27.537Z,102118.44
2018-09-25T00:42:07.426Z,102122.31
2018-09-25T00:42:47.282Z,102121.42
2018-09-25T00:43:27.366Z,102116.68
2018-09-25T00:44:07.679Z,102120.55
2018-09-25T00:44:48.139Z,102126.09
2018-09-25T00:45:28.687Z,102121.82
2018-09-25T00:46:09.075Z,102117.48
2018-09-25T00:46:48.884Z,102117.50
2018-09-25T00:47:29.028Z,102114.05
2018-09-25T00:48:08.907Z,102111.49
2018-09-25T00:48:48.856Z,102118.80
2018-09-25T00:49:28.879Z,102110.60
2018-09-25T00:50:08.721Z,102117.93
2018-09-25T00:50:48.661Z,102114.45
2018-09-25T00:51:29.215Z,102116.16
2018-09-25T00:52:08.946Z,102115.33
2018-09-25T00:52:48.862Z,102111.03
2018-09-25T00:53:28.985Z,102109.30
2018-09-25T00:54:08.799Z,102107.16
2018-09-25T00:54:48.859Z,102113.19
2018-09-25T00:55:28.839Z,102071.42
2018-09-25T00:56:08.817Z,102111.06
2018-09-25T00:56:48.766Z,102106.34
2018-09-25T00:57:28.788Z,102114.94
2018-09-25T00:58:08.786Z,102112.39
2018-09-25T00:58:48.700Z,102111.10
2018-09-25T00:59:28.814Z,102114.10
2018-09-25T01:00:08.778Z,102099.92
2018-09-25T01:00:48.795Z,102109.81
2018-09-25T01:01:28.921Z,102108.52
2018-09-25T01:02:08.904Z,102108.12
2018-09-25T01:02:48.746Z,102105.10
2018-09-25T01:03:28.807Z,102111.13
2018-09-25T01:04:08.559Z,102108.11
2018-09-25T01:04:48.473Z,102112.38
2018-09-25T01:05:28.569Z,102109.38
2018-09-25T01:06:08.520Z,102105.08
2018-09-25T01:06:48.330Z,102109.37
2018-09-25T01:07:28.846Z,102106.36
2018-09-25T01:08:08.572Z,102107.22
2018-09-25T01:08:48.748Z,102110.63
2018-09-25T01:09:28.820Z,102115.80
2018-09-25T01:10:08.849Z,102111.49
2018-09-25T01:10:48.810Z,102114.48
2018-09-25T01:11:28.722Z,102106.72
2018-09-25T01:12:08.570Z,102113.15
2018-09-25T01:12:48.632Z,102109.72
2018-09-25T01:13:28.696Z,102111.41
2018-09-25T01:14:09.105Z,102107.09
2018-09-25T01:14:49.242Z,102108.80
2018-09-25T01:15:29.334Z,102110.93
2018-09-25T01:16:09.226Z,102102.34
2018-09-25T01:16:49.030Z,102106.64
2018-09-25T01:17:29.379Z,102110.08
2018-09-25T01:18:09.175Z,102098.91
2018-09-25T01:18:49.081Z,102105.38
2018-09-25T01:19:29.276Z,102102.81
2018-09-25T01:20:09.294Z,102101.96
2018-09-25T01:20:49.414Z,102104.98
2018-09-25T01:21:29.630Z,102107.15
2018-09-25T01:22:09.139Z,102102.44
2018-09-25T01:22:49.030Z,102102.84
2018-09-25T01:23:29.091Z,102102.84
2018-09-25T01:24:09.251Z,102101.99
2018-09-25T01:24:49.168Z,102103.30
2018-09-25T01:25:29.704Z,102101.16
2018-09-25T01:26:09.068Z,102100.72
2018-09-25T01:26:49.066Z,102099.86
2018-09-25T01:27:29.185Z,102099.44
2018-09-25T01:28:09.061Z,102104.57
2018-09-25T01:28:48.492Z,102103.29
2018-09-25T01:29:29.022Z,102104.59
2018-09-25T01:30:09.162Z,102101.13
2018-09-25T01:30:48.961Z,102104.11
2018-09-25T01:31:29.288Z,102100.67
2018-09-25T01:32:09.896Z,102101.08
2018-09-25T01:32:49.932Z,102099.36
2018-09-25T01:33:29.974Z,102104.95
2018-09-25T01:34:09.772Z,102101.07
2018-09-25T01:34:49.815Z,102108.80
2018-09-25T01:35:30.033Z,102108.39
2018-09-25T01:36:09.985Z,102109.23
2018-09-25T01:36:49.915Z,102110.11
2018-09-25T01:37:30.140Z,102100.22
2018-09-25T01:38:10.192Z,102104.95
2018-09-25T01:38:50.182Z,102107.95
2018-09-25T01:39:30.061Z,102113.56
2018-09-25T01:40:10.453Z,102103.20
2018-09-25T01:40:50.454Z,102107.93
2018-09-25T01:41:30.485Z,102107.95
2018-09-25T01:42:10.593Z,102101.91
2018-09-25T01:42:50.320Z,102106.19
2018-09-25T01:43:30.343Z,102104.91
2018-09-25T01:44:10.194Z,102109.62
2018-09-25T01:44:50.132Z,102110.89
2018-09-25T01:45:30.307Z,102110.89
2018-09-25T01:46:10.236Z,102109.16
2018-09-25T01:46:50.184Z,102112.16
2018-09-25T01:47:30.263Z,102108.30
2018-09-25T01:48:10.119Z,102113.02
2018-09-25T01:48:50.084Z,102110.45
2018-09-25T01:49:30.461Z,102111.31
2018-09-25T01:50:10.510Z,102106.56
2018-09-25T01:50:50.307Z,102106.12
2018-09-25T01:51:30.384Z,102105.27
2018-09-25T01:52:10.326Z,102102.68
2018-09-25T01:52:50.142Z,102103.12
2018-09-25T01:53:30.361Z,102102.30
2018-09-25T01:54:10.421Z,102098.83
2018-09-25T01:54:50.465Z,102096.64
2018-09-25T01:55:30.538Z,102098.78
2018-09-25T01:56:10.436Z,102103.05
2018-09-25T01:56:50.496Z,102096.60
2018-09-25T01:57:30.653Z,102106.94
2018-09-25T01:58:10.551Z,102102.61
2018-09-25T01:58:50.421Z,102101.31
2018-09-25T01:59:30.536Z,102105.20
2018-09-25T02:00:11.390Z,102105.20
2018-09-25T02:00:51.326Z,102104.78
2018-09-25T02:01:31.273Z,102098.30
2018-09-25T02:02:11.227Z,102102.16
2018-09-25T02:02:51.177Z,102107.77
2018-09-25T02:03:31.204Z,102109.06
2018-09-25T02:04:11.106Z,102107.34
2018-09-25T02:04:51.178Z,102103.46
2018-09-25T02:05:31.215Z,102108.17
2018-09-25T02:06:11.246Z,102104.31
2018-09-25T02:06:51.343Z,102105.58
2018-09-25T02:07:31.155Z,102102.58
2018-09-25T02:08:11.831Z,102103.41
2018-09-25T02:08:52.125Z,102105.16
2018-09-25T02:09:32.256Z,102113.34
2018-09-25T02:10:12.100Z,102110.32
2018-09-25T02:10:52.014Z,102114.18
2018-09-25T02:11:31.964Z,102113.74
2018-09-25T02:12:12.034Z,102107.33
2018-09-25T02:12:52.097Z,102117.62
2018-09-25T02:13:31.536Z,102114.61
2018-09-25T02:14:11.429Z,102116.33
2018-09-25T02:14:51.489Z,102115.03
2018-09-25T02:15:31.578Z,102121.45
2018-09-25T02:16:11.929Z,102115.91
2018-09-25T02:16:51.646Z,102113.74
2018-09-25T02:17:31.630Z,102111.12
2018-09-25T02:18:11.651Z,102112.38
2018-09-25T02:18:51.477Z,102112.00
2018-09-25T02:19:31.390Z,102114.11
2018-09-25T02:20:11.627Z,102112.38
2018-09-25T02:20:52.026Z,102114.08
2018-09-25T02:21:32.014Z,102114.07
2018-09-25T02:22:12.028Z,102116.19
2018-09-25T02:22:52.243Z,102114.92
2018-09-25T02:23:32.248Z,102116.20
2018-09-25T02:24:12.351Z,102111.92
2018-09-25T02:24:52.231Z,102119.20
2018-09-25T02:25:32.499Z,102126.11
2018-09-25T02:26:12.305Z,102121.84
2018-09-25T02:26:52.059Z,102121.39
2018-09-25T02:27:32.157Z,102117.95
2018-09-25T02:28:12.322Z,102115.78
2018-09-25T02:28:52.191Z,102117.94
2018-09-25T02:29:32.456Z,102123.55
2018-09-25T02:30:12.777Z,102117.53
2018-09-25T02:30:52.887Z,102120.11
2018-09-25T02:31:32.386Z,102120.55
2018-09-25T02:32:12.712Z,102120.09
2018-09-25T02:32:52.645Z,102121.35
2018-09-25T02:33:33.003Z,102120.91
2018-09-25T02:34:13.057Z,102120.05
2018-09-25T02:34:53.083Z,102124.34
2018-09-25T02:35:33.452Z,102120.88
2018-09-25T02:36:13.254Z,102119.56
2018-09-25T02:36:53.284Z,102128.61
2018-09-25T02:37:33.321Z,102128.59
2018-09-25T02:43:29.735Z,102139.28
2018-09-25T02:44:09.838Z,102135.00
2018-09-25T02:44:49.948Z,102129.45
2018-09-25T02:45:30.087Z,102129.48
2018-09-25T02:46:10.144Z,102134.61
2018-09-25T02:46:50.045Z,102132.06
2018-09-25T02:47:30.000Z,102138.10
2018-09-25T02:48:09.857Z,102132.09
2018-09-25T02:48:49.713Z,102133.80
2018-09-25T02:49:30.086Z,102132.11
2018-09-25T02:50:10.192Z,102126.94
2018-09-25T02:50:50.162Z,102129.05
2018-09-25T02:51:30.167Z,102130.36
2018-09-25T02:52:10.565Z,102133.78
2018-09-25T02:52:50.431Z,102130.32
2018-09-25T02:53:30.916Z,102126.91
2018-09-25T02:54:11.030Z,102126.50
2018-09-25T02:54:50.980Z,102128.20
2018-09-25T02:55:30.975Z,102132.09
2018-09-25T02:56:11.505Z,102126.95
2018-09-25T02:56:51.347Z,102127.83
2018-09-25T02:57:31.396Z,102129.57
2018-09-25T02:58:11.373Z,102120.98
2018-09-25T02:58:51.262Z,102124.87
2018-09-25T02:59:31.392Z,102127.84
2018-09-25T03:00:11.532Z,102123.98
2018-09-25T03:00:51.634Z,102132.15
2018-09-25T03:01:31.710Z,102128.33
2018-09-25T03:02:11.647Z,102129.57
2018-09-25T03:02:51.454Z,102132.99
2018-09-25T03:03:31.544Z,102127.42
2018-09-25T03:04:11.818Z,102131.28
2018-09-25T03:04:51.911Z,102126.11
2018-09-25T03:05:32.122Z,102123.55
2018-09-25T03:06:12.410Z,102129.58
2018-09-25T03:06:52.273Z,102125.71
2018-09-25T03:07:32.306Z,102124.45
2018-09-25T03:08:12.648Z,102130.45
2018-09-25T03:08:52.499Z,102122.28
2018-09-25T03:09:32.546Z,102126.56
2018-09-25T03:10:12.740Z,102126.13
2018-09-25T03:10:52.694Z,102127.41
2018-09-25T03:11:32.834Z,102120.53
2018-09-25T03:12:12.896Z,102127.81
2018-09-25T03:12:53.023Z,102125.66
2018-09-25T03:13:33.038Z,102126.92
2018-09-25T03:14:13.135Z,102116.62
2018-09-25T03:14:53.046Z,102122.25
2018-09-25T03:15:33.063Z,102114.90
2018-09-25T03:16:13.456Z,102117.92
2018-09-25T03:16:53.380Z,102123.56
2018-09-25T03:17:33.355Z,102113.63
2018-09-25T03:18:13.165Z,102112.33
2018-09-25T03:18:53.135Z,102113.62
2018-09-25T03:19:33.156Z,102120.91
2018-09-25T03:20:13.455Z,102120.06
2018-09-25T03:20:53.391Z,102116.14
2018-09-25T03:21:33.551Z,102115.27
2018-09-25T03:22:13.478Z,102120.43
2018-09-25T03:22:53.255Z,102125.15
2018-09-25T03:23:33.085Z,102126.42
2018-09-25T03:24:13.178Z,102127.70
2018-09-25T03:24:53.095Z,102129.88
2018-09-25T03:25:33.048Z,102130.66
2018-09-25T03:26:12.847Z,102134.52
2018-09-25T03:26:52.775Z,102132.38
2018-09-25T03:27:33.059Z,102136.66
2018-09-25T03:28:12.842Z,102133.23
2018-09-25T03:28:52.917Z,102139.66
2018-09-25T03:29:32.982Z,102134.44
2018-09-25T03:30:12.903Z,102142.61
2018-09-25T03:30:52.856Z,102135.27
2018-09-25T03:31:33.029Z,102136.25
2018-09-25T03:32:12.995Z,102134.94
2018-09-25T03:32:53.049Z,102133.58
2018-09-25T03:33:33.089Z,102142.55
2018-09-25T03:34:12.918Z,102137.78
2018-09-25T03:34:52.855Z,102134.75
2018-09-25T03:35:32.974Z,102142.05
2018-09-25T03:36:13.005Z,102141.17
2018-09-25T03:36:53.101Z,102138.59
2018-09-25T03:37:33.123Z,102137.68
2018-09-25T03:38:13.016Z,102137.61
2018-09-25T03:38:52.909Z,102134.64
2018-09-25T03:39:32.743Z,102138.52
2018-09-25T03:40:12.549Z,102142.30
2018-09-25T03:40:52.356Z,102133.70
2018-09-25T03:41:32.453Z,102140.97
2018-09-25T03:42:12.290Z,102134.49
2018-09-25T03:42:52.221Z,102134.52
2018-09-25T03:43:32.563Z,102137.95
2018-09-25T03:44:12.811Z,102137.50
2018-09-25T03:44:52.607Z,102134.02
2018-09-25T03:45:32.561Z,102136.61
2018-09-25T03:46:12.485Z,102141.35
2018-09-25T03:46:52.436Z,102134.87
2018-09-25T03:47:32.471Z,102135.72
2018-09-25T03:48:12.222Z,102134.45
2018-09-25T03:48:52.106Z,102135.70
2018-09-25T03:49:32.330Z,102145.55
2018-09-25T03:50:12.248Z,102138.19
2018-09-25T03:50:52.193Z,102137.33
2018-09-25T03:51:32.221Z,102137.77
2018-09-25T03:52:11.938Z,102136.89
2018-09-25T03:52:51.938Z,102138.63
2018-09-25T03:53:32.126Z,102144.70
2018-09-25T03:54:12.161Z,102140.41
2018-09-25T03:54:52.205Z,102139.52
2018-09-25T03:55:32.347Z,102146.45
2018-09-25T03:56:12.102Z,102138.26
2018-09-25T03:56:51.978Z,102146.42
2018-09-25T03:57:31.906Z,102144.26
2018-09-25T03:58:11.805Z,102140.92
2018-09-25T03:58:51.735Z,102140.91
2018-09-25T03:59:31.799Z,102140.08
2018-09-25T04:00:12.016Z,102147.38
2018-09-25T04:00:52.077Z,102145.61
2018-09-25T04:01:31.923Z,102149.02
2018-09-25T04:02:11.886Z,102151.13
2018-09-25T04:02:51.686Z,102150.24
2018-09-25T04:03:32.104Z,102149.41
2018-09-25T04:04:11.947Z,102147.61
2018-09-25T04:04:51.805Z,102149.75
2018-09-25T04:05:31.899Z,102146.28
2018-09-25T04:06:12.043Z,102148.42
2018-09-25T04:06:52.163Z,102148.89
2018-09-25T04:07:32.219Z,102147.63
2018-09-25T04:08:12.311Z,102146.83
2018-09-25T04:08:52.205Z,102146.84
2018-09-25T04:09:32.237Z,102144.70
2018-09-25T04:10:12.174Z,102148.95
2018-09-25T04:10:51.978Z,102148.53
2018-09-25T04:11:32.209Z,102146.39
2018-09-25T04:12:11.917Z,102144.63
2018-09-25T04:12:51.865Z,102147.60
2018-09-25T04:13:31.966Z,102147.16
2018-09-25T04:14:11.769Z,102147.12
2018-09-25T04:14:51.668Z,102145.44
2018-09-25T04:15:31.747Z,102147.60
2018-09-25T04:16:11.588Z,102146.28
2018-09-25T04:16:51.528Z,102151.03
2018-09-25T04:17:31.726Z,102147.25
2018-09-25T04:18:12.072Z,102144.70
2018-09-25T04:18:52.156Z,102143.86
2018-09-25T04:19:32.019Z,102151.98
2018-09-25T04:20:12.454Z,102154.14
2018-09-25T04:20:52.350Z,102159.30
2018-09-25T04:21:32.342Z,102152.01
2018-09-25T04:22:12.605Z,102156.27
2018-09-25T04:22:52.627Z,102156.27
2018-09-25T04:23:32.716Z,102160.63
2018-09-25T04:24:13.003Z,102158.48
2018-09-25T04:24:52.929Z,102157.22
2018-09-25T04:25:32.982Z,102161.09
2018-09-25T04:26:13.368Z,102156.80
2018-09-25T04:26:53.314Z,102166.66
2018-09-25T04:27:32.741Z,102169.64
2018-09-25T04:28:12.803Z,102160.63
2018-09-25T04:28:52.934Z,102163.18
2018-09-25T04:29:32.908Z,102168.74
2018-09-25T04:30:12.969Z,102170.45
2018-09-25T04:30:53.056Z,102175.19
2018-09-25T04:31:33.223Z,102173.55
2018-09-25T04:32:13.215Z,102177.83
2018-09-25T04:32:53.186Z,102178.69
2018-09-25T04:33:32.974Z,102175.71
2018-09-25T04:34:12.725Z,102176.16
2018-09-25T04:34:52.512Z,102175.29
2018-09-25T04:35:32.667Z,102179.51
2018-09-25T04:36:13.003Z,102168.41
2018-09-25T04:36:53.066Z,102176.20
2018-09-25T04:37:33.147Z,102174.42
2018-09-25T04:38:13.214Z,102175.66
2018-09-25T04:38:53.299Z,102175.22
2018-09-25T04:39:33.512Z,102176.45
2018-09-25T04:40:14.060Z,102176.02
2018-09-25T04:40:53.979Z,102180.70
2018-09-25T04:41:33.934Z,102179.83
2018-09-25T04:42:13.638Z,102181.58
2018-09-25T04:42:53.516Z,102181.58
2018-09-25T04:43:33.502Z,102182.40
2018-09-25T04:44:13.679Z,102188.80
2018-09-25T04:44:53.510Z,102183.59
2018-09-25T04:45:33.639Z,102187.45
2018-09-25T04:46:13.502Z,102184.41
2018-09-25T04:46:53.455Z,102190.44
2018-09-25T04:47:33.492Z,102184.80
2018-09-25T04:48:13.260Z,102186.09
2018-09-25T04:48:53.441Z,102192.54
2018-09-25T04:49:33.528Z,102189.51
2018-09-25T04:50:13.795Z,102189.92
2018-09-25T04:50:53.932Z,102192.94
2018-09-25T04:51:34.109Z,102193.38
2018-09-25T04:52:13.847Z,102195.09
2018-09-25T04:52:54.160Z,102196.03
2018-09-25T04:53:34.570Z,102194.72
2018-09-25T04:54:14.599Z,102183.92
2018-09-25T04:54:54.529Z,102191.66
2018-09-25T04:55:34.565Z,102192.89
2018-09-25T04:56:14.275Z,102190.80
2018-09-25T04:56:54.440Z,102195.06
2018-09-25T04:57:34.482Z,102198.08
2018-09-25T04:58:14.493Z,102195.91
2018-09-25T04:58:54.595Z,102197.64
2018-09-25T04:59:34.627Z,102196.84
2018-09-25T05:00:14.445Z,102203.69
2018-09-25T05:00:54.345Z,102197.68
2018-09-25T05:01:40.695Z,102199.36
2018-09-25T05:02:20.657Z,102202.42
2018-09-25T05:03:00.736Z,102202.80
2018-09-25T05:03:40.677Z,102203.71
2018-09-25T05:04:20.499Z,102201.58
2018-09-25T05:05:00.492Z,102198.64
2018-09-25T05:05:40.344Z,102197.73
2018-09-25T05:06:20.116Z,102202.84
2018-09-25T05:07:00.241Z,102194.74
2018-09-25T05:07:40.446Z,102195.55
2018-09-25T05:08:20.226Z,102195.14
2018-09-25T05:09:00.354Z,102198.16
2018-09-25T05:09:40.379Z,102191.67
2018-09-25T05:10:20.354Z,102190.74
2018-09-25T05:11:00.470Z,102190.80
2018-09-25T05:11:40.525Z,102193.80
2018-09-25T05:12:20.327Z,102189.91
2018-09-25T05:13:00.242Z,102190.38
2018-09-25T05:13:40.102Z,102190.27
2018-09-25T05:14:20.218Z,102194.57
2018-09-25T05:15:00.290Z,102196.84
2018-09-25T05:15:40.222Z,102191.33
2018-09-25T05:16:20.080Z,102198.61
2018-09-25T05:17:00.079Z,102199.01
2018-09-25T05:17:39.926Z,102201.98
2018-09-25T05:18:19.820Z,102205.00
2018-09-25T05:18:59.817Z,102196.11
2018-09-25T05:19:39.654Z,102202.09
2018-09-25T05:20:19.542Z,102202.08
2018-09-25T05:20:59.628Z,102199.45
2018-09-25T05:21:39.393Z,102200.81
2018-09-25T05:22:19.343Z,102200.81
2018-09-25T05:22:59.322Z,102204.64
2018-09-25T05:23:39.238Z,102195.65
2018-09-25T05:24:19.317Z,102197.42
2018-09-25T05:24:59.375Z,102196.18
2018-09-25T05:25:39.555Z,102199.22
2018-09-25T05:26:19.481Z,102195.34
2018-09-25T05:26:59.586Z,102187.60
2018-09-25T05:27:39.491Z,102197.53
2018-09-25T05:28:19.396Z,102195.36
2018-09-25T05:28:59.567Z,102199.68
2018-09-25T05:29:39.786Z,102200.94
2018-09-25T05:30:19.803Z,102198.00
2018-09-25T05:30:59.822Z,102196.66
2018-09-25T05:31:40.136Z,102198.38
2018-09-25T05:32:19.833Z,102193.63
2018-09-25T05:32:59.717Z,102194.53
2018-09-25T05:33:39.835Z,102201.00
2018-09-25T05:34:19.842Z,102199.73
2018-09-25T05:34:59.887Z,102203.16
2018-09-25T05:35:40.037Z,102205.36
2018-09-25T05:36:19.957Z,102203.18
2018-09-25T05:37:00.061Z,102203.58
2018-09-25T05:37:40.235Z,102201.89
2018-09-25T05:38:20.076Z,102198.48
2018-09-25T05:39:00.275Z,102194.14
2018-09-25T05:39:40.241Z,102195.53
2018-09-25T05:40:20.347Z,102198.90
2018-09-25T05:41:00.486Z,102190.78
2018-09-25T05:41:40.602Z,102198.06
2018-09-25T05:42:20.667Z,102200.84
2018-09-25T05:43:00.680Z,102198.24
2018-09-25T05:43:40.381Z,102201.61
2018-09-25T05:44:20.499Z,102198.14
2018-09-25T05:45:00.548Z,102209.72
2018-09-25T05:45:40.328Z,102206.23
2018-09-25T05:46:20.377Z,102211.03
2018-09-25T05:47:00.439Z,102205.02
2018-09-25T05:47:40.487Z,102209.76
2018-09-25T05:48:20.441Z,102208.89
2018-09-25T05:49:01.465Z,102205.89
2018-09-25T05:49:41.516Z,102204.66
2018-09-25T05:50:21.515Z,102200.38
2018-09-25T05:51:01.681Z,102213.31
2018-09-25T05:51:41.747Z,102215.92
2018-09-25T05:52:21.708Z,102213.33
2018-09-25T05:53:01.832Z,102217.63
2018-09-25T05:53:41.627Z,102217.63
2018-09-25T05:54:21.686Z,102215.98
2018-09-25T05:55:01.710Z,102219.81
2018-09-25T05:55:41.529Z,102215.96
2018-09-25T05:56:21.696Z,102214.67
2018-09-25T05:57:02.337Z,102211.26
2018-09-25T05:57:42.491Z,102206.91
2018-09-25T05:58:22.358Z,102209.95
2018-09-25T05:59:02.286Z,102212.65
2018-09-25T05:59:42.281Z,102204.53
2018-09-25T06:00:22.152Z,102210.50
2018-09-25T06:01:02.389Z,102213.52
2018-09-25T06:01:42.488Z,102213.50
2018-09-25T06:02:22.393Z,102211.88
2018-09-25T06:03:02.526Z,102214.50
2018-09-25T06:03:42.314Z,102213.61
2018-09-25T06:04:22.288Z,102218.28
2018-09-25T06:05:02.547Z,102217.86
2018-09-25T06:05:42.399Z,102220.85
2018-09-25T06:06:22.338Z,102217.09
2018-09-25T06:07:02.362Z,102220.17
2018-09-25T06:07:42.094Z,102216.31
2018-09-25T06:08:22.103Z,102221.08
2018-09-25T06:09:02.167Z,102215.91
2018-09-25T06:09:42.262Z,102218.08
2018-09-25T06:10:22.177Z,102213.75
2018-09-25T06:11:02.483Z,102214.66
2018-09-25T06:11:42.352Z,102216.39
2018-09-25T06:12:22.390Z,102216.83
2018-09-25T06:13:02.466Z,102213.84
2018-09-25T06:13:42.269Z,102213.37
2018-09-25T06:14:22.348Z,102212.97
2018-09-25T06:15:03.213Z,102208.23
2018-09-25T06:15:43.273Z,102211.69
2018-09-25T06:16:23.574Z,102209.09
2018-09-25T06:17:03.627Z,102210.83
2018-09-25T06:17:43.396Z,102210.89
2018-09-25T06:18:23.245Z,102210.47
2018-09-25T06:19:03.138Z,102202.27
2018-09-25T06:19:42.932Z,102213.89
2018-09-25T06:20:23.070Z,102208.30
2018-09-25T06:21:03.114Z,102210.90
2018-09-25T06:21:43.118Z,102208.34
2018-09-25T06:22:23.445Z,102208.38
2018-09-25T06:23:03.511Z,102211.97
2018-09-25T06:23:43.522Z,102210.60
2018-09-25T06:24:23.439Z,102212.72
2018-09-25T06:25:03.449Z,102217.91
2018-09-25T06:25:43.426Z,102214.50
2018-09-25T06:26:23.452Z,102223.92
2018-09-25T06:27:03.394Z,102214.04
2018-09-25T06:27:43.157Z,102221.78
2018-09-25T06:28:23.095Z,102215.78
2018-09-25T06:29:03.147Z,102216.21
2018-09-25T06:29:43.006Z,102219.66
2018-09-25T06:30:22.853Z,102222.27
2018-09-25T06:31:02.949Z,102219.73
2018-09-25T06:31:43.065Z,102222.75
2018-09-25T06:32:23.215Z,102219.73
2018-09-25T06:33:03.255Z,102223.61
2018-09-25T06:33:43.031Z,102226.19
2018-09-25T06:34:22.882Z,102225.31
2018-09-25T06:35:02.972Z,102221.93
2018-09-25T06:35:42.924Z,102229.66
2018-09-25T06:36:22.794Z,102229.20
2018-09-25T06:37:02.675Z,102228.38
2018-09-25T06:37:42.414Z,102227.95
2018-09-25T06:38:22.159Z,102237.44
2018-09-25T06:39:02.258Z,102230.59
2018-09-25T06:39:42.254Z,102228.42
2018-09-25T06:40:22.204Z,102233.16
2018-09-25T06:41:02.419Z,102235.75
2018-09-25T06:41:42.550Z,102235.41
2018-09-25T06:42:22.635Z,102238.44
2018-09-25T06:43:02.414Z,102235.85
2018-09-25T06:43:42.509Z,102240.56
2018-09-25T06:44:22.434Z,102237.12
2018-09-25T06:45:02.511Z,102239.69
2018-09-25T06:45:42.728Z,102241.41
2018-09-25T06:46:22.534Z,102243.13
2018-09-25T06:47:02.911Z,102240.05
2018-09-25T06:47:43.047Z,102241.41
2018-09-25T06:48:23.098Z,102241.42
2018-09-25T06:49:03.199Z,102243.59
2018-09-25T06:49:43.202Z,102241.88
2018-09-25T06:50:23.199Z,102241.42
2018-09-25T06:51:03.125Z,102244.88
2018-09-25T06:51:43.162Z,102240.16
2018-09-25T06:52:23.031Z,102249.21
2018-09-25T06:53:03.175Z,102246.63
2018-09-25T06:53:43.053Z,102246.23
2018-09-25T06:54:22.920Z,102250.95
2018-09-25T06:55:03.496Z,102247.52
2018-09-25T06:55:43.615Z,102244.52
2018-09-25T06:56:23.531Z,102245.41
2018-09-25T06:57:03.460Z,102244.53
2018-09-25T06:57:43.221Z,102246.67
2018-09-25T06:58:23.165Z,102244.97
2018-09-25T06:59:03.557Z,102240.69
2018-09-25T06:59:43.546Z,102238.14
2018-09-25T07:00:23.506Z,102234.68
2018-09-25T07:01:03.672Z,102237.30
2018-09-25T07:01:43.719Z,102239.91
2018-09-25T07:02:23.780Z,102236.01
2018-09-25T07:03:04.087Z,102239.87
2018-09-25T07:03:43.855Z,102243.34
2018-09-25T07:04:23.739Z,102234.30
2018-09-25T07:05:03.788Z,102243.77
2018-09-25T07:05:43.736Z,102239.04
2018-09-25T07:06:23.808Z,102241.63
2018-09-25T07:07:03.976Z,102235.19
2018-09-25T07:07:43.745Z,102243.38
2018-09-25T07:08:23.564Z,102245.53
2018-09-25T07:09:03.866Z,102249.83
2018-09-25T07:09:43.981Z,102241.69
2018-09-25T07:10:24.209Z,102242.53
2018-09-25T07:11:04.140Z,102248.55
2018-09-25T07:11:44.181Z,102254.59
2018-09-25T07:12:24.157Z,102245.14
2018-09-25T07:13:04.362Z,102248.58
2018-09-25T07:13:44.165Z,102248.62
2018-09-25T07:14:23.964Z,102252.92
2018-09-25T07:15:03.910Z,102249.89
2018-09-25T07:15:43.915Z,102253.34
2018-09-25T07:16:23.700Z,102253.34
2018-09-25T07:17:03.759Z,102259.78
2018-09-25T07:17:43.666Z,102258.95
2018-09-25T07:18:23.763Z,102250.34
2018-09-25T07:19:04.001Z,102255.52
2018-09-25T07:19:43.831Z,102254.20
2018-09-25T07:20:23.778Z,102255.54
2018-09-25T07:21:04.190Z,102252.52
2018-09-25T07:21:44.238Z,102252.52
2018-09-25T07:22:24.166Z,102255.54
2018-09-25T07:23:04.210Z,102258.09
2018-09-25T07:23:44.298Z,102254.25
2018-09-25T07:24:24.146Z,102261.55
2018-09-25T07:25:04.375Z,102258.97
2018-09-25T07:25:44.358Z,102258.97
2018-09-25T07:26:24.247Z,102258.98
2018-09-25T07:27:04.354Z,102264.16
2018-09-25T07:27:44.170Z,102266.72
2018-09-25T07:28:23.880Z,102265.00
2018-09-25T07:29:03.890Z,102265.02
2018-09-25T07:29:43.838Z,102271.03
2018-09-25T07:30:23.738Z,102267.16
2018-09-25T07:31:03.834Z,102263.73
2018-09-25T07:31:43.811Z,102270.17
2018-09-25T07:32:23.681Z,102277.09
2018-09-25T07:33:03.514Z,102268.03
2018-09-25T07:33:43.291Z,102265.02
2018-09-25T07:34:23.165Z,102268.04
2018-09-25T07:35:03.113Z,102276.20
2018-09-25T07:35:42.953Z,102265.01
2018-09-25T07:36:22.811Z,102276.22
2018-09-25T07:37:02.874Z,102269.75
2018-09-25T07:37:42.581Z,102267.59
2018-09-25T07:38:22.569Z,102276.22
2018-09-25T07:39:02.491Z,102278.78
2018-09-25T07:39:42.294Z,102274.50
2018-09-25T07:40:22.166Z,102278.79
2018-09-25T07:41:02.246Z,102276.64
2018-09-25T07:41:42.167Z,102271.88
2018-09-25T07:42:21.915Z,102272.76